createdAt,value
2023-03-31T00:01:44.280Z,99329.14
2023-03-31T00:04:14.179Z,99331.39
2023-03-31T00:06:43.170Z,99331.05
2023-03-31T00:09:14.248Z,99330.48
2023-03-31T00:11:43.071Z,99327.83
2023-03-31T00:14:12.124Z,99329.39
2023-03-31T00:16:41.198Z,99333.60
2023-03-31T00:19:13.934Z,99332.69
2023-03-31T00:21:43.137Z,99335.48
2023-03-31T00:24:12.804Z,99335.05
2023-03-31T00:26:43.902Z,99332.80
2023-03-31T00:29:15.192Z,99330.83
2023-03-31T00:31:44.373Z,99329.89
2023-03-31T00:34:13.263Z,99328.02
2023-03-31T00:36:47.891Z,99326.10
2023-03-31T00:39:21.867Z,99324.75
2023-03-31T00:41:51.479Z,99322.87
2023-03-31T00:44:24.904Z,99316.36
2023-03-31T00:47:07.744Z,99315.57
2023-03-31T00:49:42.331Z,99315.97
2023-03-31T00:52:23.922Z,99318.83
2023-03-31T00:55:00.264Z,99311.42
2023-03-31T00:57:32.870Z,99308.77
2023-03-31T01:00:31.480Z,99308.06
2023-03-31T01:03:04.031Z,99305.35
2023-03-31T01:05:42.936Z,99296.02
2023-03-31T01:08:12.832Z,99294.91
2023-03-31T01:10:45.622Z,99293.34
2023-03-31T01:13:15.759Z,99292.33
2023-03-31T01:15:44.835Z,99291.95
2023-03-31T01:18:16.585Z,99288.08
2023-03-31T01:21:04.238Z,99287.45
2023-03-31T01:23:48.776Z,99286.61
2023-03-31T01:26:46.131Z,99280.52
2023-03-31T01:29:37.160Z,99278.28
2023-03-31T01:32:38.434Z,99273.73
2023-03-31T01:35:21.375Z,99268.36
2023-03-31T01:38:18.570Z,99266.00
2023-03-31T01:40:51.567Z,99271.86
2023-03-31T01:43:32.841Z,99275.86
2023-03-31T01:46:10.394Z,99273.22
2023-03-31T01:48:42.598Z,99269.32
2023-03-31T01:51:21.667Z,99265.71
2023-03-31T01:54:01.203Z,99262.44
2023-03-31T01:56:35.147Z,99259.46
2023-03-31T01:59:11.969Z,99258.27
2023-03-31T02:01:53.805Z,99261.67
2023-03-31T02:04:30.838Z,99256.89
2023-03-31T02:07:06.583Z,99259.78
2023-03-31T02:09:41.256Z,99257.45
2023-03-31T02:12:12.737Z,99257.39
2023-03-31T02:14:44.400Z,99259.31
2023-03-31T02:17:18.636Z,99259.02
2023-03-31T02:19:50.178Z,99253.81
2023-03-31T02:22:24.228Z,99252.99
2023-03-31T02:24:53.818Z,99250.34
2023-03-31T02:27:26.588Z,99248.29
2023-03-31T02:29:55.965Z,99247.27
2023-03-31T02:32:42.170Z,99247.81
2023-03-31T02:35:13.396Z,99247.81
2023-03-31T02:37:43.245Z,99242.17
2023-03-31T02:40:20.717Z,99237.54
2023-03-31T02:42:49.920Z,99232.71
2023-03-31T02:45:39.937Z,99230.23
2023-03-31T02:48:12.293Z,99226.31
2023-03-31T02:51:00.004Z,99231.80
2023-03-31T02:53:58.279Z,99225.65
2023-03-31T02:57:07.676Z,99223.13
2023-03-31T02:59:54.719Z,99218.36
2023-03-31T03:02:32.490Z,99214.30
2023-03-31T03:05:20.701Z,99211.70
2023-03-31T03:08:28.607Z,99211.19
2023-03-31T03:11:08.450Z,99209.80
2023-03-31T03:14:01.173Z,99206.73
2023-03-31T03:16:38.551Z,99208.89
2023-03-31T03:19:07.752Z,99205.36
2023-03-31T03:21:36.597Z,99202.02
2023-03-31T03:24:05.682Z,99201.55
2023-03-31T03:26:35.728Z,99200.52
2023-03-31T03:29:05.073Z,99199.13
2023-03-31T03:31:34.270Z,99199.34
2023-03-31T03:34:03.670Z,99194.95
2023-03-31T03:36:33.383Z,99192.59
2023-03-31T03:39:02.213Z,99193.50
2023-03-31T03:41:33.843Z,99189.26
2023-03-31T03:44:03.042Z,99189.45
2023-03-31T03:46:33.602Z,99189.58
2023-03-31T03:49:02.764Z,99186.60
2023-03-31T03:51:31.622Z,99185.37
2023-03-31T03:54:00.663Z,99184.57
2023-03-31T03:56:29.343Z,99187.29
2023-03-31T03:58:58.835Z,99185.02
2023-03-31T04:01:27.488Z,99183.36
2023-03-31T04:03:56.616Z,99178.86
2023-03-31T04:06:25.824Z,99175.69
2023-03-31T04:08:54.695Z,99172.77
2023-03-31T04:11:24.439Z,99170.88
2023-03-31T04:13:54.310Z,99171.40
2023-03-31T04:16:26.108Z,99173.16
2023-03-31T04:18:59.323Z,99171.26
2023-03-31T04:21:28.244Z,99169.63
2023-03-31T04:24:02.257Z,99167.65
2023-03-31T04:26:53.582Z,99164.33
2023-03-31T04:29:23.000Z,99162.52
2023-03-31T04:31:53.048Z,99160.27
2023-03-31T04:34:27.436Z,99161.29
2023-03-31T04:36:56.625Z,99157.62
2023-03-31T04:39:27.553Z,99152.85
2023-03-31T04:42:00.372Z,99150.90
2023-03-31T04:44:30.489Z,99144.84
2023-03-31T04:46:59.450Z,99137.89
2023-03-31T04:49:28.327Z,99137.67
2023-03-31T04:51:57.330Z,99134.24
2023-03-31T04:54:26.109Z,99131.21
2023-03-31T04:56:56.004Z,99128.17
2023-03-31T04:59:26.252Z,99130.40
2023-03-31T05:01:58.014Z,99126.35
2023-03-31T05:04:26.939Z,99126.80
2023-03-31T05:06:56.720Z,99129.36
2023-03-31T05:09:27.053Z,99126.36
2023-03-31T05:11:56.033Z,99121.93
2023-03-31T05:14:25.430Z,99119.39
2023-03-31T05:16:58.416Z,99125.89
2023-03-31T05:19:29.414Z,99130.39
2023-03-31T05:21:58.059Z,99130.42
2023-03-31T05:24:28.642Z,99127.84
2023-03-31T05:26:57.876Z,99128.08
2023-03-31T05:29:27.099Z,99124.79
2023-03-31T05:31:55.897Z,99123.43
2023-03-31T05:34:25.058Z,99124.86
2023-03-31T05:36:54.354Z,99122.96
2023-03-31T05:39:23.453Z,99118.04
2023-03-31T05:41:52.949Z,99116.79
2023-03-31T05:44:21.762Z,99106.08
2023-03-31T05:46:50.463Z,99106.14
2023-03-31T05:49:19.726Z,99107.83
2023-03-31T05:51:48.863Z,99113.30
2023-03-31T05:54:17.927Z,99114.14
2023-03-31T05:56:47.035Z,99114.75
2023-03-31T05:59:16.973Z,99112.09
2023-03-31T06:01:46.069Z,99111.71
2023-03-31T06:04:15.443Z,99107.27
2023-03-31T06:06:44.853Z,99107.73
2023-03-31T06:09:13.517Z,99103.83
2023-03-31T06:11:42.207Z,99102.18
2023-03-31T06:14:11.070Z,99094.66
2023-03-31T06:16:40.103Z,99093.25
2023-03-31T06:19:09.395Z,99089.73
2023-03-31T06:21:37.968Z,99089.56
2023-03-31T06:24:07.465Z,99084.90
2023-03-31T06:26:36.362Z,99078.80
2023-03-31T06:29:05.182Z,99080.13
2023-03-31T06:31:34.117Z,99075.28
2023-03-31T06:34:03.029Z,99072.14
2023-03-31T06:36:31.833Z,99072.85
2023-03-31T06:39:00.911Z,99071.91
2023-03-31T06:41:29.498Z,99071.08
2023-03-31T06:43:58.177Z,99071.66
2023-03-31T06:46:28.674Z,99071.69
2023-03-31T06:48:57.619Z,99071.42
2023-03-31T06:51:26.605Z,99075.20
2023-03-31T06:53:55.299Z,99072.95
2023-03-31T06:56:24.080Z,99073.49
2023-03-31T06:58:52.764Z,99074.73
2023-03-31T07:01:22.091Z,99070.92
2023-03-31T07:03:51.437Z,99067.50
2023-03-31T07:06:20.456Z,99064.66
2023-03-31T07:08:50.050Z,99068.33
2023-03-31T07:11:21.177Z,99068.98
2023-03-31T07:13:50.299Z,99074.83
2023-03-31T07:16:19.161Z,99064.11
2023-03-31T07:18:48.073Z,99058.71
2023-03-31T07:21:17.578Z,99050.09
2023-03-31T07:23:46.264Z,99049.02
2023-03-31T07:26:15.056Z,99051.31
2023-03-31T07:28:44.245Z,99043.41
2023-03-31T07:31:14.564Z,99041.84
2023-03-31T07:33:44.498Z,99036.80
2023-03-31T07:36:14.865Z,99031.33
2023-03-31T07:38:47.048Z,99031.48
2023-03-31T07:41:18.858Z,99026.80
2023-03-31T07:43:48.746Z,99020.31
2023-03-31T07:46:25.666Z,99021.84
2023-03-31T07:48:57.030Z,99013.74
2023-03-31T07:51:27.407Z,99002.13
2023-03-31T07:53:58.445Z,98994.77
2023-03-31T07:56:27.561Z,98991.25
2023-03-31T07:58:57.891Z,98999.00
2023-03-31T08:01:30.236Z,99000.86
2023-03-31T08:03:59.686Z,99005.55
2023-03-31T08:06:29.570Z,99003.92
2023-03-31T08:08:59.257Z,99004.41
2023-03-31T08:11:30.295Z,99002.81
2023-03-31T08:13:59.193Z,99002.55
2023-03-31T08:16:28.183Z,99008.35
2023-03-31T08:18:57.283Z,99002.73
2023-03-31T08:21:26.324Z,98999.35
2023-03-31T08:23:56.464Z,98995.73
2023-03-31T08:26:26.204Z,98987.70
2023-03-31T08:28:55.747Z,98981.28
2023-03-31T08:31:27.538Z,98972.41
2023-03-31T08:33:56.903Z,98961.89
2023-03-31T08:36:26.585Z,98956.50
2023-03-31T08:38:56.038Z,98958.09
2023-03-31T08:41:36.763Z,98953.05
2023-03-31T08:44:14.665Z,98943.39
2023-03-31T08:46:44.161Z,98943.80
2023-03-31T08:49:16.889Z,98941.80
2023-03-31T08:52:23.989Z,98947.52
2023-03-31T08:54:56.947Z,98939.71
2023-03-31T08:57:43.677Z,98938.34
2023-03-31T09:00:18.874Z,98931.61
2023-03-31T09:02:56.505Z,98926.55
2023-03-31T09:05:49.119Z,98927.38
2023-03-31T09:08:36.426Z,98923.55
2023-03-31T09:11:16.425Z,98918.50
2023-03-31T09:14:03.904Z,98912.43
2023-03-31T09:16:38.531Z,98908.45
2023-03-31T09:19:18.775Z,98908.17
2023-03-31T09:21:52.779Z,98908.92
2023-03-31T09:24:56.683Z,98916.24
2023-03-31T09:27:28.812Z,98913.72
2023-03-31T09:30:11.798Z,98906.89
2023-03-31T09:32:40.548Z,98904.52
2023-03-31T09:35:25.404Z,98900.39
2023-03-31T09:37:54.757Z,98894.84
2023-03-31T09:40:26.514Z,98888.93
2023-03-31T09:43:00.861Z,98885.18
2023-03-31T09:45:31.549Z,98880.86
2023-03-31T09:48:04.589Z,98876.52
2023-03-31T09:50:37.832Z,98875.80
2023-03-31T09:53:08.460Z,98875.23
2023-03-31T09:56:02.358Z,98870.33
2023-03-31T09:58:31.437Z,98868.03
2023-03-31T10:01:08.085Z,98865.93
2023-03-31T10:03:54.969Z,98855.62
2023-03-31T10:06:25.140Z,98849.92
2023-03-31T10:08:59.928Z,98844.78
2023-03-31T10:11:29.115Z,98845.58
2023-03-31T10:14:04.303Z,98841.06
2023-03-31T10:16:43.987Z,98836.20
2023-03-31T10:19:23.085Z,98833.92
2023-03-31T10:22:01.630Z,98828.77
2023-03-31T10:24:41.927Z,98822.77
2023-03-31T10:27:31.019Z,98820.69
2023-03-31T10:30:02.795Z,98817.48
2023-03-31T10:32:33.809Z,98816.94
2023-03-31T10:35:21.544Z,98808.09
2023-03-31T10:37:52.653Z,98798.27
2023-03-31T10:40:28.759Z,98795.52
2023-03-31T10:43:17.007Z,98792.85
2023-03-31T10:45:50.748Z,98794.30
2023-03-31T10:48:28.807Z,98787.91
2023-03-31T10:51:26.884Z,98787.70
2023-03-31T10:53:56.902Z,98783.85
2023-03-31T10:56:44.762Z,98777.54
2023-03-31T10:59:47.597Z,98774.44
2023-03-31T11:02:51.906Z,98767.67
2023-03-31T11:05:29.694Z,98760.96
2023-03-31T11:08:20.756Z,98758.35
2023-03-31T11:11:00.109Z,98750.53
2023-03-31T11:13:35.016Z,98752.47
2023-03-31T11:16:40.367Z,98750.45
2023-03-31T11:19:12.623Z,98735.93
2023-03-31T11:22:06.406Z,98735.13
2023-03-31T11:25:13.999Z,98726.73
2023-03-31T11:27:50.120Z,98722.11
2023-03-31T11:30:41.688Z,98714.01
2023-03-31T11:33:23.047Z,98699.19
2023-03-31T11:36:07.752Z,98697.69
2023-03-31T11:39:22.477Z,98695.38
2023-03-31T11:41:54.764Z,98681.20
2023-03-31T11:44:25.244Z,98682.91
2023-03-31T11:46:57.106Z,98682.98
2023-03-31T11:49:31.425Z,98674.70
2023-03-31T11:52:16.106Z,98672.98
2023-03-31T11:54:53.806Z,98669.25
2023-03-31T11:57:33.478Z,98663.70
2023-03-31T12:00:23.428Z,98654.79
2023-03-31T12:03:22.907Z,98661.81
2023-03-31T12:05:59.844Z,98659.20
2023-03-31T12:08:37.949Z,98659.55
2023-03-31T12:11:14.151Z,98660.19
2023-03-31T12:14:22.734Z,98658.98
2023-03-31T12:17:01.856Z,98656.45
2023-03-31T12:19:50.906Z,98656.75
2023-03-31T12:22:32.186Z,98656.09
2023-03-31T12:25:01.084Z,98652.52
2023-03-31T12:27:38.750Z,98647.48
2023-03-31T12:30:42.824Z,98641.89
2023-03-31T12:33:34.230Z,98636.56
2023-03-31T12:36:13.138Z,98630.09
2023-03-31T12:39:06.903Z,98632.25
2023-03-31T12:42:04.684Z,98624.10
2023-03-31T12:44:42.448Z,98625.20
2023-03-31T12:47:42.566Z,98619.19
2023-03-31T12:50:36.164Z,98615.86
2023-03-31T12:53:31.882Z,98607.73
2023-03-31T12:56:00.776Z,98600.54
2023-03-31T12:58:32.664Z,98595.67
2023-03-31T13:01:21.980Z,98593.79
2023-03-31T13:04:21.834Z,98590.92
2023-03-31T13:06:55.634Z,98592.96
2023-03-31T13:09:44.421Z,98588.08
2023-03-31T13:12:20.678Z,98588.86
2023-03-31T13:14:54.214Z,98584.77
2023-03-31T13:17:31.542Z,98584.62
2023-03-31T13:20:34.460Z,98576.71
2023-03-31T13:23:17.658Z,98578.48
2023-03-31T13:25:47.161Z,98567.19
2023-03-31T13:28:42.795Z,98560.37
2023-03-31T13:31:16.340Z,98550.84
2023-03-31T13:33:51.806Z,98544.40
2023-03-31T13:36:32.839Z,98535.61
2023-03-31T13:39:20.109Z,98528.72
2023-03-31T13:42:19.839Z,98520.45
2023-03-31T13:45:06.942Z,98514.09
2023-03-31T13:47:44.471Z,98510.33
2023-03-31T13:50:44.345Z,98506.02
2023-03-31T13:53:22.477Z,98501.22
2023-03-31T13:56:10.918Z,98492.76
2023-03-31T13:58:46.060Z,98491.70
2023-03-31T14:01:33.955Z,98486.03
2023-03-31T14:04:14.845Z,98482.73
2023-03-31T14:07:00.229Z,98475.63
2023-03-31T14:09:50.314Z,98471.79
2023-03-31T14:12:35.714Z,98468.17
2023-03-31T14:15:07.246Z,98466.11
2023-03-31T14:17:40.911Z,98460.33
2023-03-31T14:20:47.432Z,98456.94
2023-03-31T14:23:27.471Z,98453.10
2023-03-31T14:26:48.028Z,98450.95
2023-03-31T14:29:23.010Z,98442.29
2023-03-31T14:32:25.171Z,98438.41
2023-03-31T14:35:01.381Z,98436.37
2023-03-31T14:37:31.869Z,98433.19
2023-03-31T14:40:04.756Z,98424.48
2023-03-31T14:42:40.459Z,98424.63
2023-03-31T14:45:32.130Z,98410.86
2023-03-31T14:48:14.959Z,98408.96
2023-03-31T14:50:45.416Z,98409.25
2023-03-31T14:53:16.666Z,98410.74
2023-03-31T14:55:58.110Z,98405.54
2023-03-31T14:58:35.362Z,98404.20
2023-03-31T15:01:08.177Z,98401.45
2023-03-31T15:03:42.045Z,98401.36
2023-03-31T15:06:12.171Z,98398.97
2023-03-31T15:08:41.306Z,98401.83
2023-03-31T15:11:19.198Z,98402.49
2023-03-31T15:14:03.434Z,98406.79
2023-03-31T15:16:43.091Z,98402.10
2023-03-31T15:19:18.455Z,98404.52
2023-03-31T15:22:02.491Z,98400.83
2023-03-31T15:24:33.121Z,98394.38
2023-03-31T15:27:20.476Z,98390.02
2023-03-31T15:29:51.962Z,98389.67
2023-03-31T15:32:25.809Z,98393.67
2023-03-31T15:35:00.331Z,98387.46
2023-03-31T15:37:42.885Z,98387.39
2023-03-31T15:40:33.414Z,98390.64
2023-03-31T15:43:24.356Z,98382.52
2023-03-31T15:45:56.314Z,98374.52
2023-03-31T15:48:34.288Z,98372.83
2023-03-31T15:51:21.202Z,98377.17
2023-03-31T15:53:53.639Z,98376.75
2023-03-31T15:56:36.289Z,98379.98
2023-03-31T15:59:06.837Z,98376.81
2023-03-31T16:01:43.636Z,98375.11
2023-03-31T16:04:15.256Z,98374.06
2023-03-31T16:06:57.852Z,98376.17
2023-03-31T16:09:30.487Z,98374.23
2023-03-31T16:12:02.311Z,98379.63
2023-03-31T16:14:51.690Z,98379.03
2023-03-31T16:17:34.340Z,98372.11
2023-03-31T16:20:17.717Z,98367.58
2023-03-31T16:22:51.155Z,98363.36
2023-03-31T16:25:22.750Z,98353.55
2023-03-31T16:27:55.161Z,98355.49
2023-03-31T16:30:39.366Z,98355.51
2023-03-31T16:33:14.246Z,98354.41
2023-03-31T16:35:45.854Z,98349.13
2023-03-31T16:38:16.683Z,98346.89
2023-03-31T16:40:52.177Z,98338.20
2023-03-31T16:43:30.049Z,98336.15
2023-03-31T16:46:01.802Z,98325.17
2023-03-31T16:48:34.387Z,98318.42
2023-03-31T16:51:04.365Z,98313.91
2023-03-31T16:53:36.188Z,98316.67
2023-03-31T16:56:08.904Z,98312.84
2023-03-31T16:58:38.662Z,98313.96
2023-03-31T17:01:09.048Z,98312.33
2023-03-31T17:03:42.520Z,98305.25
2023-03-31T17:06:13.338Z,98306.80
2023-03-31T17:08:42.694Z,98309.37
2023-03-31T17:11:14.958Z,98316.36
2023-03-31T17:13:45.790Z,98320.80
2023-03-31T17:16:19.310Z,98321.92
2023-03-31T17:18:56.236Z,98319.19
2023-03-31T17:21:25.640Z,98318.80
2023-03-31T17:23:55.209Z,98311.63
2023-03-31T17:26:24.819Z,98308.71
2023-03-31T17:28:54.067Z,98311.30
2023-03-31T17:31:23.403Z,98309.31
2023-03-31T17:33:52.940Z,98310.75
2023-03-31T17:36:22.885Z,98309.69
2023-03-31T17:38:52.474Z,98306.30
2023-03-31T17:41:22.246Z,98304.14
2023-03-31T17:43:52.782Z,98301.48
2023-03-31T17:46:25.247Z,98303.42
2023-03-31T17:48:57.010Z,98300.81
2023-03-31T17:51:26.320Z,98303.17
2023-03-31T17:53:56.021Z,98299.83
2023-03-31T17:56:28.684Z,98310.66
2023-03-31T17:58:58.667Z,98313.02
2023-03-31T18:01:29.334Z,98310.34
2023-03-31T18:03:59.573Z,98316.29
2023-03-31T18:06:29.551Z,98323.26
2023-03-31T18:08:58.876Z,98328.75
2023-03-31T18:11:28.370Z,98324.96
2023-03-31T18:13:57.484Z,98327.51
2023-03-31T18:16:28.186Z,98324.90
2023-03-31T18:18:59.110Z,98326.21
2023-03-31T18:21:29.685Z,98319.48
2023-03-31T18:23:59.790Z,98324.39
2023-03-31T18:26:30.135Z,98325.36
2023-03-31T18:29:00.316Z,98326.90
2023-03-31T18:31:32.155Z,98327.98
2023-03-31T18:34:01.509Z,98326.70
2023-03-31T18:36:32.548Z,98328.93
2023-03-31T18:39:05.743Z,98333.39
2023-03-31T18:41:40.594Z,98336.48
2023-03-31T18:44:11.273Z,98334.77
2023-03-31T18:46:49.938Z,98335.13
2023-03-31T18:49:23.036Z,98333.11
2023-03-31T18:51:55.889Z,98327.48
2023-03-31T18:54:27.352Z,98325.20
2023-03-31T18:56:58.056Z,98322.79
2023-03-31T18:59:29.813Z,98324.56
2023-03-31T19:02:00.665Z,98319.34
2023-03-31T19:04:31.111Z,98319.95
2023-03-31T19:07:02.917Z,98316.05
2023-03-31T19:09:35.244Z,98317.87
2023-03-31T19:12:06.977Z,98318.73
2023-03-31T19:14:42.083Z,98326.40
2023-03-31T19:17:12.427Z,98330.22
2023-03-31T19:19:42.883Z,98338.02
2023-03-31T19:22:15.577Z,98338.35
2023-03-31T19:24:45.563Z,98348.20
2023-03-31T19:27:16.498Z,98346.91
2023-03-31T19:29:48.415Z,98345.21
2023-03-31T19:32:19.433Z,98348.46
2023-03-31T19:34:50.473Z,98342.39
2023-03-31T19:37:24.307Z,98339.06
2023-03-31T19:39:56.144Z,98335.88
2023-03-31T19:42:27.574Z,98334.04
2023-03-31T19:44:57.884Z,98333.06
2023-03-31T19:47:29.945Z,98330.66
2023-03-31T19:50:02.265Z,98334.89
2023-03-31T19:52:34.459Z,98340.40
2023-03-31T19:55:06.416Z,98349.61
2023-03-31T19:57:43.519Z,98358.39
2023-03-31T20:00:14.704Z,98357.64
2023-03-31T20:02:45.459Z,98354.69
2023-03-31T20:05:20.272Z,98351.38
2023-03-31T20:07:50.062Z,98353.91
2023-03-31T20:10:21.636Z,98357.55
2023-03-31T20:12:52.854Z,98358.72
2023-03-31T20:15:23.910Z,98345.96
2023-03-31T20:17:55.063Z,98342.58
2023-03-31T20:20:26.159Z,98340.59
2023-03-31T20:22:56.374Z,98335.88
2023-03-31T20:25:28.995Z,98333.56
2023-03-31T20:28:00.026Z,98339.51
2023-03-31T20:30:30.962Z,98345.18
2023-03-31T20:33:01.399Z,98351.52
2023-03-31T20:35:32.796Z,98365.08
2023-03-31T20:38:02.326Z,98375.99
2023-03-31T20:40:32.144Z,98390.21
2023-03-31T20:43:01.456Z,98391.40
2023-03-31T20:45:32.366Z,98397.98
2023-03-31T20:48:03.961Z,98401.92
2023-03-31T20:50:36.087Z,98399.46
2023-03-31T20:53:07.472Z,98409.05
2023-03-31T20:55:37.240Z,98412.62
2023-03-31T20:58:06.362Z,98415.27
2023-03-31T21:00:35.703Z,98418.08
2023-03-31T21:03:04.879Z,98420.20
2023-03-31T21:05:33.948Z,98420.55
2023-03-31T21:08:03.279Z,98418.97
2023-03-31T21:10:32.660Z,98416.71
2023-03-31T21:13:01.863Z,98416.21
2023-03-31T21:15:31.289Z,98412.45
2023-03-31T21:18:00.235Z,98413.20
2023-03-31T21:20:31.410Z,98408.34
2023-03-31T21:23:03.248Z,98404.34
2023-03-31T21:25:33.362Z,98403.73
2023-03-31T21:28:02.383Z,98400.27
2023-03-31T21:30:32.604Z,98399.29
2023-03-31T21:33:01.491Z,98393.48
2023-03-31T21:35:32.253Z,98392.89
2023-03-31T21:38:03.582Z,98393.64
2023-03-31T21:40:33.721Z,98390.42
2023-03-31T21:43:03.085Z,98388.71
2023-03-31T21:45:32.303Z,98382.33
2023-03-31T21:48:01.859Z,98385.70
2023-03-31T21:50:32.213Z,98395.52
2023-03-31T21:53:05.104Z,98390.09
2023-03-31T21:55:35.596Z,98393.55
2023-03-31T21:58:06.048Z,98393.60
2023-03-31T22:00:36.483Z,98394.19
2023-03-31T22:03:22.332Z,98395.89
2023-03-31T22:05:54.938Z,98394.36
2023-03-31T22:08:24.052Z,98391.54
2023-03-31T22:10:54.167Z,98396.70
2023-03-31T22:13:24.814Z,98393.47
2023-03-31T22:15:53.848Z,98393.95
2023-03-31T22:18:23.085Z,98394.03
2023-03-31T22:20:52.713Z,98401.73
2023-03-31T22:23:21.981Z,98404.16
2023-03-31T22:25:51.001Z,98407.36
2023-03-31T22:28:19.751Z,98405.90
2023-03-31T22:30:48.600Z,98402.30
2023-03-31T22:33:17.544Z,98401.95
2023-03-31T22:35:47.384Z,98399.11
2023-03-31T22:38:17.594Z,98400.21
2023-03-31T22:40:46.252Z,98400.68
2023-03-31T22:43:15.135Z,98402.20
2023-03-31T22:45:43.625Z,98399.33
2023-03-31T22:48:13.223Z,98400.66
2023-03-31T22:50:43.708Z,98396.50
2023-03-31T22:53:13.371Z,98397.23
2023-03-31T22:55:43.439Z,98395.99
2023-03-31T22:58:23.150Z,98400.33
2023-03-31T23:00:58.889Z,98398.96
2023-03-31T23:03:27.979Z,98395.47
2023-03-31T23:05:57.390Z,98392.48
2023-03-31T23:08:26.481Z,98391.34
2023-03-31T23:10:58.018Z,98390.30
2023-03-31T23:13:27.654Z,98391.83
2023-03-31T23:15:57.046Z,98389.62
2023-03-31T23:18:26.243Z,98386.04
2023-03-31T23:20:55.357Z,98385.90
2023-03-31T23:23:24.339Z,98381.98
2023-03-31T23:25:53.212Z,98374.70
2023-03-31T23:28:22.215Z,98370.48
2023-03-31T23:30:56.934Z,98367.35
2023-03-31T23:33:28.306Z,98363.02
2023-03-31T23:36:06.263Z,98361.15
2023-03-31T23:38:35.831Z,98364.24
2023-03-31T23:41:04.792Z,98356.95
2023-03-31T23:43:33.672Z,98362.29
2023-03-31T23:46:06.659Z,98364.13
2023-03-31T23:48:37.079Z,98364.70
2023-03-31T23:51:07.928Z,98362.28
2023-03-31T23:53:37.123Z,98365.55
2023-03-31T23:56:09.100Z,98363.39
2023-03-31T23:58:38.172Z,98360.45
